Time;durP1;ratioP1;P1;durP2;ratioP2;P2;SDS_P1;SDS_P2;PMS_P1;PMS_P2;Temp;Humidity;BMP_temperature;BMP_pressure;BME280_temperature;BME280_humidity;BME280_pressure;Samples;Min_cycle;Max_cycle;Signal;HPM_P1;HPM_P2
2023/03/18 00:02:07;;;;;;;1.08;0.95;;;15.40;60.30;;;;;;5026503;28;20082;-68
2023/03/18 00:04:33;;;;;;;8.05;1.20;;;15.30;60.50;;;;;;5008255;28;20026;-68
2023/03/18 00:06:59;;;;;;;6.95;1.40;;;15.30;60.70;;;;;;5008536;28;20463;-67
2023/03/18 00:09:25;;;;;;;1.20;1.10;;;15.20;61.00;;;;;;5025630;28;20026;-69
2023/03/18 00:11:52;;;;;;;2.80;1.52;;;15.20;61.00;;;;;;5025876;28;20095;-68
2023/03/18 00:14:19;;;;;;;1.90;1.20;;;15.20;61.10;;;;;;4993628;28;20108;-68
2023/03/18 00:16:45;;;;;;;2.40;1.38;;;15.10;61.00;;;;;;5030986;28;20041;-67
2023/03/18 00:19:11;;;;;;;0.98;0.90;;;15.10;61.10;;;;;;5001251;28;20026;-68
2023/03/18 00:21:37;;;;;;;2.22;1.10;;;15.10;61.10;;;;;;5024110;28;20021;-68
2023/03/18 00:24:03;;;;;;;2.75;1.00;;;15.10;61.20;;;;;;5026301;28;20504;-68
2023/03/18 00:26:29;;;;;;;2.03;1.20;;;15.10;61.20;;;;;;5014491;28;20028;-68
2023/03/18 00:28:57;;;;;;;1.50;1.08;;;15.00;61.50;;;;;;5027047;28;20033;-68
2023/03/18 00:31:23;;;;;;;2.08;1.38;;;15.00;61.50;;;;;;5023416;28;20033;-68
2023/03/18 00:33:49;;;;;;;5.07;1.50;;;15.00;61.60;;;;;;5024040;28;20053;-68
2023/03/18 00:36:17;;;;;;;1.83;1.40;;;15.00;61.70;;;;;;5022583;28;20061;-68
2023/03/18 00:38:49;;;;;;;1.42;1.02;;;15.00;61.80;;;;;;5026124;28;20123;-68
2023/03/18 00:41:15;;;;;;;1.17;0.75;;;15.00;61.80;;;;;;4998220;28;20059;-68
2023/03/18 00:43:53;;;;;;;2.35;1.50;;;15.00;61.90;;;;;;5028114;28;20018;-68
2023/03/18 00:46:23;;;;;;;1.17;0.90;;;14.90;62.00;;;;;;5033657;28;20025;-66
2023/03/18 00:48:51;;;;;;;3.67;1.38;;;14.90;62.10;;;;;;5006815;28;20034;-68
2023/03/18 00:51:19;;;;;;;3.25;1.38;;;14.90;62.30;;;;;;5032772;28;20056;-68
2023/03/18 00:53:48;;;;;;;1.83;1.13;;;14.80;62.40;;;;;;5026208;28;20022;-67
2023/03/18 00:56:18;;;;;;;1.85;1.17;;;14.80;62.60;;;;;;5010329;28;20128;-67
2023/03/18 00:58:46;;;;;;;2.33;1.42;;;14.80;62.90;;;;;;5022775;28;20056;-67
2023/03/18 01:01:12;;;;;;;1.58;0.95;;;14.70;63.10;;;;;;5016671;28;20501;-67
2023/03/18 01:03:42;;;;;;;1.33;0.95;;;14.70;63.40;;;;;;5027213;28;20009;-68
2023/03/18 01:06:16;;;;;;;1.05;0.93;;;14.60;63.40;;;;;;5033371;28;20057;-67
2023/03/18 01:08:42;;;;;;;1.27;1.02;;;14.60;63.50;;;;;;5010612;28;20033;-66
2023/03/18 01:11:08;;;;;;;1.40;1.25;;;14.60;63.60;;;;;;5031278;28;20038;-68
2023/03/18 01:13:35;;;;;;;1.98;1.38;;;14.50;63.70;;;;;;5028911;28;20735;-67
2023/03/18 01:16:02;;;;;;;1.83;1.02;;;14.50;63.80;;;;;;5032885;28;20042;-66
2023/03/18 01:18:28;;;;;;;2.00;1.30;;;14.50;64.00;;;;;;5030873;28;20025;-67
2023/03/18 01:20:55;;;;;;;6.55;1.42;;;14.50;64.20;;;;;;5028082;28;20022;-67
2023/03/18 01:23:21;;;;;;;6.05;1.58;;;14.40;64.40;;;;;;5017319;28;20108;-68
2023/03/18 01:25:47;;;;;;;4.78;1.30;;;14.40;64.60;;;;;;5033008;28;20053;-67
2023/03/18 01:28:13;;;;;;;2.10;1.48;;;14.30;64.90;;;;;;5033297;28;20025;-68
2023/03/18 01:30:39;;;;;;;3.38;1.52;;;14.30;65.10;;;;;;5024708;28;20030;-68
2023/03/18 01:33:07;;;;;;;6.38;1.63;;;14.30;65.30;;;;;;5033038;28;20042;-68
2023/03/18 01:35:36;;;;;;;5.03;1.55;;;14.30;65.40;;;;;;5029852;28;20061;-68
2023/03/18 01:38:04;;;;;;;2.45;1.20;;;14.20;65.40;;;;;;5026844;28;20091;-68
2023/03/18 01:40:32;;;;;;;1.50;1.20;;;14.20;65.50;;;;;;5025456;28;20032;-67
2023/03/18 01:43:18;;;;;;;5.07;1.35;;;14.20;65.60;;;;;;5012869;28;20092;-68
2023/03/18 01:45:48;;;;;;;2.67;1.15;;;14.20;65.60;;;;;;5026700;28;20072;-68
2023/03/18 01:48:16;;;;;;;2.60;1.48;;;14.20;65.80;;;;;;5027743;28;20033;-68
2023/03/18 01:50:43;;;;;;;1.30;1.17;;;14.20;65.90;;;;;;5029707;28;20399;-68
2023/03/18 01:53:14;;;;;;;4.65;1.60;;;14.10;66.00;;;;;;5023414;28;20026;-68
2023/03/18 01:55:42;;;;;;;2.05;1.30;;;14.10;66.10;;;;;;5031014;28;20388;-68
2023/03/18 01:58:26;;;;;;;2.20;1.73;;;14.10;66.20;;;;;;5032252;28;20133;-68
2023/03/18 02:00:56;;;;;;;2.92;1.48;;;14.10;66.40;;;;;;5023588;28;20057;-68
2023/03/18 02:03:22;;;;;;;2.55;1.50;;;14.00;66.50;;;;;;5031167;28;20021;-69
2023/03/18 02:05:49;;;;;;;2.58;1.50;;;14.00;66.50;;;;;;5026094;28;20067;-68
2023/03/18 02:08:16;;;;;;;2.38;1.65;;;14.00;66.60;;;;;;5014205;28;20568;-68
2023/03/18 02:10:44;;;;;;;4.93;1.70;;;14.00;66.80;;;;;;5027573;28;20466;-68
2023/03/18 02:13:11;;;;;;;3.38;1.30;;;14.00;66.80;;;;;;5029192;28;20049;-68
2023/03/18 02:15:49;;;;;;;3.72;1.40;;;14.00;66.90;;;;;;5031363;28;20060;-66
2023/03/18 02:18:29;;;;;;;2.35;1.25;;;13.90;67.00;;;;;;5024451;28;20119;-68
2023/03/18 02:21:24;;;;;;;2.80;1.50;;;13.90;67.10;;;;;;5024288;28;20025;-68
2023/03/18 02:24:22;;;;;;;5.18;1.52;;;13.90;67.30;;;;;;5033172;28;20028;-68
2023/03/18 02:26:58;;;;;;;3.65;1.58;;;13.80;67.50;;;;;;4976670;28;20113;-67
2023/03/18 02:29:26;;;;;;;3.08;1.17;;;13.80;67.70;;;;;;5016997;28;20025;-67
2023/03/18 02:31:55;;;;;;;2.67;1.48;;;13.80;68.40;;;;;;5029960;28;20057;-67
2023/03/18 02:34:24;;;;;;;2.58;1.52;;;13.70;67.90;;;;;;5018773;28;20034;-66
2023/03/18 02:36:50;;;;;;;6.90;1.85;;;13.70;67.90;;;;;;5023894;28;20539;-67
2023/03/18 02:39:16;;;;;;;6.93;1.67;;;13.70;68.00;;;;;;5012565;28;20041;-68
2023/03/18 02:41:43;;;;;;;2.28;2.08;;;13.70;68.20;;;;;;5026848;28;20471;-69
2023/03/18 02:44:11;;;;;;;2.92;1.23;;;13.70;68.30;;;;;;5028994;28;20088;-66
2023/03/18 02:46:42;;;;;;;4.43;1.40;;;13.60;68.30;;;;;;5027401;28;20105;-67
2023/03/18 02:49:09;;;;;;;4.25;1.85;;;13.60;68.50;;;;;;5028254;28;20029;-66
2023/03/18 02:51:36;;;;;;;4.90;1.52;;;13.60;68.60;;;;;;5026523;28;20029;-67
2023/03/18 02:54:29;;;;;;;2.55;1.67;;;13.60;68.70;;;;;;5026941;28;20437;-67
2023/03/18 02:56:55;;;;;;;3.95;1.77;;;13.60;68.60;;;;;;5021663;28;20037;-68
2023/03/18 02:59:21;;;;;;;2.80;1.85;;;13.60;68.90;;;;;;5032174;28;20048;-66
2023/03/18 03:01:50;;;;;;;3.28;1.80;;;13.50;69.00;;;;;;5007486;28;20025;-67
2023/03/18 03:04:18;;;;;;;2.22;1.50;;;13.50;69.20;;;;;;5032263;28;20139;-67
2023/03/18 03:06:44;;;;;;;2.08;1.58;;;13.50;69.30;;;;;;5017951;28;20093;-67
2023/03/18 03:09:12;;;;;;;2.55;1.83;;;13.50;69.30;;;;;;5026524;28;20038;-67
2023/03/18 03:11:39;;;;;;;2.45;1.63;;;13.50;69.30;;;;;;5032452;28;20028;-67
2023/03/18 03:14:05;;;;;;;1.73;1.33;;;13.50;69.40;;;;;;5019685;28;20041;-67
2023/03/18 03:16:31;;;;;;;4.15;2.20;;;13.50;69.20;;;;;;5030508;28;20030;-66
2023/03/18 03:18:57;;;;;;;6.00;2.25;;;13.60;69.30;;;;;;5027797;28;20040;-67
2023/03/18 03:21:23;;;;;;;5.10;2.47;;;13.60;69.40;;;;;;5011709;28;20068;-66
2023/03/18 03:23:49;;;;;;;4.30;2.30;;;13.60;69.50;;;;;;5027692;28;20029;-67
2023/03/18 03:26:15;;;;;;;4.43;2.13;;;13.60;69.70;;;;;;5030004;28;20091;-69
2023/03/18 03:28:41;;;;;;;2.92;1.75;;;13.60;69.90;;;;;;5027248;28;20065;-69
2023/03/18 03:31:09;;;;;;;2.15;1.30;;;13.60;70.00;;;;;;5021920;28;20029;-67
2023/03/18 03:33:40;;;;;;;3.10;1.52;;;13.60;70.20;;;;;;5006310;28;20053;-67
2023/03/18 03:36:08;;;;;;;2.58;1.77;;;13.60;70.40;;;;;;5028847;28;20606;-68
2023/03/18 03:38:34;;;;;;;3.25;1.70;;;13.60;70.60;;;;;;5010235;28;20041;-67
2023/03/18 03:40:59;;;;;;;3.08;1.90;;;13.60;70.70;;;;;;5029683;28;20472;-67
2023/03/18 03:43:25;;;;;;;3.63;1.80;;;13.60;70.80;;;;;;5023465;28;20038;-68
2023/03/18 03:45:51;;;;;;;3.42;1.80;;;13.60;70.90;;;;;;5018105;28;20171;-66
2023/03/18 03:48:16;;;;;;;3.03;1.65;;;13.60;71.20;;;;;;5009469;28;20033;-69
2023/03/18 03:50:42;;;;;;;5.30;2.75;;;13.60;71.60;;;;;;5029449;28;20029;-68
2023/03/18 03:53:09;;;;;;;3.75;1.90;;;13.60;71.80;;;;;;5032529;28;20033;-68
2023/03/18 03:55:35;;;;;;;2.17;1.80;;;13.60;72.00;;;;;;5028808;28;20037;-69
2023/03/18 03:58:01;;;;;;;4.00;2.17;;;13.60;72.20;;;;;;5025299;28;20030;-68
2023/03/18 04:00:27;;;;;;;4.68;2.10;;;13.60;72.40;;;;;;5023726;28;20028;-69
2023/03/18 04:02:53;;;;;;;4.55;2.65;;;13.60;72.50;;;;;;5016584;28;20492;-69
2023/03/18 04:05:21;;;;;;;3.90;2.17;;;13.50;72.70;;;;;;5015958;28;20477;-69
2023/03/18 04:07:47;;;;;;;3.75;1.95;;;13.50;72.90;;;;;;5022062;28;20022;-68
2023/03/18 04:10:15;;;;;;;4.60;2.47;;;13.50;73.00;;;;;;5010215;28;20467;-68
2023/03/18 04:12:41;;;;;;;5.95;2.17;;;13.50;73.00;;;;;;5022497;28;20083;-69
2023/03/18 04:15:08;;;;;;;4.40;2.45;;;13.50;73.10;;;;;;5015716;28;20044;-68
2023/03/18 04:17:35;;;;;;;5.30;2.60;;;13.60;73.50;;;;;;5022463;28;20029;-67
2023/03/18 04:20:02;;;;;;;4.05;2.10;;;13.50;74.30;;;;;;5028926;28;20408;-65
2023/03/18 04:22:28;;;;;;;3.38;1.77;;;13.50;74.40;;;;;;5034396;28;20420;-67
2023/03/18 04:24:54;;;;;;;4.28;2.00;;;13.60;74.00;;;;;;5022307;28;20125;-66
2023/03/18 04:27:21;;;;;;;4.40;1.83;;;13.60;74.10;;;;;;5045402;28;20129;-68
2023/03/18 04:29:47;;;;;;;4.78;2.53;;;13.60;74.10;;;;;;5033141;28;20017;-67
2023/03/18 04:32:13;;;;;;;2.92;2.28;;;13.60;74.20;;;;;;4980124;28;20112;-69
2023/03/18 04:34:39;;;;;;;3.85;2.97;;;13.60;74.50;;;;;;5017751;28;20030;-68
2023/03/18 04:37:05;;;;;;;1.85;1.73;;;13.50;74.90;;;;;;5024248;28;20191;-70
2023/03/18 04:39:31;;;;;;;3.75;2.70;;;13.50;74.80;;;;;;5021803;28;20775;-68
2023/03/18 04:41:57;;;;;;;3.67;2.60;;;13.50;74.80;;;;;;5011456;28;20026;-69
2023/03/18 04:44:23;;;;;;;3.88;2.88;;;13.50;75.20;;;;;;5027116;28;20111;-67
2023/03/18 04:46:49;;;;;;;8.35;2.78;;;13.50;75.50;;;;;;5011854;28;20026;-67
2023/03/18 04:49:15;;;;;;;4.30;2.47;;;13.50;75.50;;;;;;5025614;28;20026;-68
2023/03/18 04:51:41;;;;;;;3.90;2.60;;;13.50;75.50;;;;;;5026054;28;20457;-69
2023/03/18 04:54:07;;;;;;;5.05;2.10;;;13.50;75.50;;;;;;5023441;28;20041;-68
2023/03/18 04:56:33;;;;;;;5.00;2.90;;;13.50;75.50;;;;;;5015273;28;20046;-67
2023/03/18 04:58:59;;;;;;;5.32;2.50;;;13.50;75.50;;;;;;5018488;28;20021;-67
2023/03/18 05:01:25;;;;;;;6.45;2.65;;;13.50;75.60;;;;;;5021440;28;20053;-67
2023/03/18 05:03:51;;;;;;;7.00;3.10;;;13.50;75.80;;;;;;5028550;28;20025;-63
2023/03/18 05:06:26;;;;;;;4.60;2.63;;;13.50;76.30;;;;;;5030730;28;20433;-62
2023/03/18 05:08:51;;;;;;;5.05;3.55;;;13.50;75.80;;;;;;5013897;28;20028;-63
2023/03/18 05:11:19;;;;;;;3.03;2.45;;;13.50;76.10;;;;;;5013159;28;20025;-62
2023/03/18 05:13:45;;;;;;;7.80;3.15;;;13.50;76.00;;;;;;5029459;28;20029;-68
2023/03/18 05:16:11;;;;;;;5.05;2.67;;;13.50;76.20;;;;;;5028162;28;20389;-68
2023/03/18 05:18:37;;;;;;;6.13;3.35;;;13.50;76.30;;;;;;5027193;28;20049;-68
2023/03/18 05:21:04;;;;;;;6.70;3.05;;;13.50;76.50;;;;;;5029088;28;20032;-68
2023/03/18 05:23:30;;;;;;;6.45;2.78;;;13.50;76.50;;;;;;5033298;28;20026;-68
2023/03/18 05:25:56;;;;;;;5.22;3.28;;;13.40;76.40;;;;;;5030487;28;20053;-69
2023/03/18 05:28:22;;;;;;;5.28;3.15;;;13.40;76.70;;;;;;5030213;28;20116;-69
2023/03/18 05:30:49;;;;;;;3.97;2.58;;;13.40;76.80;;;;;;5027518;28;20046;-68
2023/03/18 05:33:15;;;;;;;4.28;2.63;;;13.40;76.90;;;;;;5036107;28;20425;-69
2023/03/18 05:35:41;;;;;;;4.35;2.47;;;13.30;77.00;;;;;;5032017;28;20045;-69
2023/03/18 05:38:06;;;;;;;8.10;3.60;;;13.30;76.90;;;;;;5028510;28;20128;-68
2023/03/18 05:40:33;;;;;;;6.68;2.95;;;13.30;77.00;;;;;;5023303;28;20646;-68
2023/03/18 05:42:59;;;;;;;5.38;4.03;;;13.30;77.00;;;;;;5030035;28;20049;-67
2023/03/18 05:45:24;;;;;;;6.70;3.50;;;13.30;77.30;;;;;;5027694;28;20068;-68
2023/03/18 05:47:51;;;;;;;4.50;3.28;;;13.30;77.50;;;;;;5032623;28;20025;-69
2023/03/18 05:50:37;;;;;;;6.78;2.95;;;13.30;77.60;;;;;;5011058;28;20103;-68
2023/03/18 05:53:04;;;;;;;6.05;3.10;;;13.30;77.60;;;;;;5006594;28;20036;-69
2023/03/18 05:55:30;;;;;;;6.32;3.47;;;13.20;77.70;;;;;;5038449;28;20021;-69
2023/03/18 05:57:57;;;;;;;5.57;2.80;;;13.30;77.70;;;;;;5015285;28;20033;-68
2023/03/18 06:00:24;;;;;;;5.20;3.25;;;13.20;77.70;;;;;;5027232;28;20040;-69
2023/03/18 06:02:53;;;;;;;4.15;2.55;;;13.20;77.70;;;;;;5028959;28;20082;-68
2023/03/18 06:05:20;;;;;;;5.30;3.08;;;13.30;77.70;;;;;;5038919;28;20143;-69
2023/03/18 06:07:46;;;;;;;5.70;3.92;;;13.30;77.70;;;;;;5033726;28;20419;-68
2023/03/18 06:10:12;;;;;;;7.30;3.80;;;13.30;77.70;;;;;;5031091;28;20424;-68
2023/03/18 06:12:38;;;;;;;6.10;3.35;;;13.30;78.10;;;;;;5034162;28;20452;-68
2023/03/18 06:15:09;;;;;;;6.88;4.13;;;13.30;78.50;;;;;;5032008;28;20034;-69
2023/03/18 06:17:35;;;;;;;5.80;3.53;;;13.30;78.30;;;;;;5029511;28;20033;-69
2023/03/18 06:20:07;;;;;;;7.28;4.35;;;13.30;78.90;;;;;;5023492;28;20029;-68
2023/03/18 06:22:33;;;;;;;7.63;4.10;;;13.30;79.10;;;;;;5032877;28;20079;-68
2023/03/18 06:24:58;;;;;;;6.32;4.07;;;13.30;79.00;;;;;;5030643;28;20432;-68
2023/03/18 06:27:24;;;;;;;5.95;3.70;;;13.30;79.70;;;;;;5024944;28;20099;-69
2023/03/18 06:29:50;;;;;;;6.55;3.67;;;13.30;79.00;;;;;;5026159;28;20084;-68
2023/03/18 06:32:15;;;;;;;6.32;3.92;;;13.30;79.10;;;;;;5027711;28;20052;-69
2023/03/18 06:34:41;;;;;;;5.43;3.42;;;13.40;79.10;;;;;;5017841;28;20037;-67
2023/03/18 06:37:08;;;;;;;7.43;4.30;;;13.40;79.40;;;;;;5009878;28;20481;-68
2023/03/18 06:39:34;;;;;;;6.70;4.40;;;13.40;79.50;;;;;;5028443;28;20040;-67
2023/03/18 06:42:00;;;;;;;11.05;4.28;;;13.40;79.80;;;;;;5038207;28;20029;-69
2023/03/18 06:44:26;;;;;;;8.02;4.05;;;13.40;79.70;;;;;;5033797;28;20108;-68
2023/03/18 06:46:52;;;;;;;11.35;5.45;;;13.40;80.00;;;;;;5023483;28;20037;-70
2023/03/18 06:49:18;;;;;;;6.60;3.70;;;13.40;80.00;;;;;;5013020;28;20168;-69
2023/03/18 06:51:44;;;;;;;5.18;3.30;;;13.40;79.80;;;;;;5035764;28;20519;-69
2023/03/18 06:54:10;;;;;;;4.35;3.08;;;13.50;79.70;;;;;;5022390;28;20504;-69
2023/03/18 06:56:40;;;;;;;4.43;3.28;;;13.50;80.30;;;;;;5030037;28;20032;-68
2023/03/18 06:59:08;;;;;;;7.60;4.15;;;13.50;79.50;;;;;;5012577;28;20428;-69
2023/03/18 07:01:35;;;;;;;6.40;3.80;;;13.60;79.60;;;;;;5020371;28;20433;-66
2023/03/18 07:04:01;;;;;;;7.60;4.15;;;13.60;79.70;;;;;;5030543;28;20021;-67
2023/03/18 07:06:28;;;;;;;8.57;3.75;;;13.60;79.50;;;;;;5007395;28;20108;-67
2023/03/18 07:08:55;;;;;;;6.95;4.30;;;13.70;79.50;;;;;;5010007;28;20038;-68
2023/03/18 07:11:21;;;;;;;12.27;4.65;;;13.70;79.30;;;;;;5011606;28;20048;-69
2023/03/18 07:13:47;;;;;;;7.65;3.90;;;13.70;79.80;;;;;;5028730;28;20038;-68
2023/03/18 07:16:13;;;;;;;6.15;4.32;;;13.80;79.80;;;;;;5029693;28;20049;-67
2023/03/18 07:18:39;;;;;;;7.55;3.78;;;13.70;80.00;;;;;;5011569;28;20030;-68
2023/03/18 07:21:05;;;;;;;7.15;4.00;;;13.70;79.90;;;;;;5032749;28;20535;-68
2023/03/18 07:23:31;;;;;;;6.22;3.10;;;13.80;79.90;;;;;;5030336;28;20037;-67
2023/03/18 07:25:57;;;;;;;8.50;4.70;;;13.80;79.70;;;;;;5025365;28;20071;-68
2023/03/18 07:28:24;;;;;;;6.18;3.75;;;13.90;79.90;;;;;;5022813;28;20117;-68
2023/03/18 07:30:50;;;;;;;6.00;3.85;;;13.90;79.80;;;;;;5030790;28;20496;-67
2023/03/18 07:33:16;;;;;;;7.32;4.45;;;13.90;79.70;;;;;;5030116;28;20049;-67
2023/03/18 07:35:42;;;;;;;5.38;3.45;;;14.00;79.80;;;;;;5029190;28;20091;-68
2023/03/18 07:38:09;;;;;;;8.35;4.20;;;14.00;79.60;;;;;;5030126;28;20072;-68
2023/03/18 07:40:35;;;;;;;5.13;3.92;;;14.10;79.70;;;;;;5006722;28;20036;-69
2023/03/18 07:43:01;;;;;;;5.85;3.42;;;14.00;79.70;;;;;;5030969;28;20076;-69
2023/03/18 07:45:28;;;;;;;13.57;4.28;;;14.00;79.70;;;;;;5011617;28;20476;-68
2023/03/18 07:47:53;;;;;;;7.00;4.03;;;14.00;79.90;;;;;;5032377;28;20071;-69
2023/03/18 07:50:19;;;;;;;13.48;4.50;;;14.00;79.90;;;;;;5037059;28;20469;-67
2023/03/18 07:52:45;;;;;;;6.32;4.38;;;13.90;80.10;;;;;;5030008;28;20034;-71
2023/03/18 07:55:11;;;;;;;8.77;4.18;;;14.00;80.20;;;;;;5018396;28;20116;-69
2023/03/18 07:57:37;;;;;;;7.22;3.50;;;14.00;80.00;;;;;;5031142;28;20485;-69
2023/03/18 08:00:05;;;;;;;10.02;4.28;;;14.10;79.80;;;;;;5025057;28;20095;-70
2023/03/18 08:02:30;;;;;;;8.85;4.28;;;14.20;79.80;;;;;;5030067;28;20033;-71
2023/03/18 08:04:57;;;;;;;8.38;4.57;;;14.20;79.80;;;;;;5009274;28;20545;-73
2023/03/18 08:07:24;;;;;;;6.68;4.40;;;14.20;79.70;;;;;;5038919;28;20381;-69
2023/03/18 08:09:49;;;;;;;8.07;4.53;;;14.30;79.60;;;;;;5014641;28;20025;-72
2023/03/18 08:12:16;;;;;;;5.47;3.60;;;14.30;79.50;;;;;;5027085;28;20045;-74
2023/03/18 08:14:42;;;;;;;6.22;3.55;;;14.40;79.40;;;;;;5034135;28;20143;-72
2023/03/18 08:17:08;;;;;;;10.13;4.13;;;14.50;79.20;;;;;;5030103;28;20030;-76
2023/03/18 08:19:34;;;;;;;5.40;2.90;;;14.60;78.90;;;;;;5028071;28;20033;-69
2023/03/18 08:22:00;;;;;;;9.10;3.67;;;14.60;78.70;;;;;;5027106;28;20465;-71
2023/03/18 08:24:26;;;;;;;6.63;3.75;;;14.60;78.50;;;;;;5025979;28;20029;-70
2023/03/18 08:26:52;;;;;;;4.40;2.78;;;14.70;78.50;;;;;;5014097;28;20271;-73
2023/03/18 08:29:18;;;;;;;5.15;3.47;;;14.70;78.30;;;;;;5043781;28;20033;-70
2023/03/18 08:31:44;;;;;;;4.85;3.10;;;14.70;78.30;;;;;;5018718;28;20026;-72
2023/03/18 08:34:09;;;;;;;5.18;3.20;;;14.80;78.20;;;;;;5019599;28;20521;-73
2023/03/18 08:36:35;;;;;;;4.18;3.20;;;14.80;78.10;;;;;;5029067;28;20113;-72
2023/03/18 08:39:02;;;;;;;3.47;2.80;;;14.80;78.00;;;;;;5026704;28;20029;-70
2023/03/18 08:41:28;;;;;;;4.95;2.97;;;14.80;77.90;;;;;;5007766;28;20053;-67
2023/03/18 08:43:56;;;;;;;6.93;3.65;;;14.90;77.80;;;;;;5018358;28;20025;-68
2023/03/18 08:46:22;;;;;;;5.60;3.33;;;14.90;77.80;;;;;;5022117;28;20502;-69
2023/03/18 08:48:48;;;;;;;5.97;2.70;;;14.80;77.70;;;;;;5002973;28;20191;-67
2023/03/18 08:51:15;;;;;;;5.20;3.00;;;14.80;77.70;;;;;;5023175;28;20404;-68
2023/03/18 08:53:41;;;;;;;5.07;3.15;;;14.90;77.50;;;;;;5018890;28;20029;-68
2023/03/18 08:56:07;;;;;;;8.15;3.33;;;14.90;77.30;;;;;;5015401;28;20083;-69
2023/03/18 08:58:33;;;;;;;4.78;2.85;;;14.90;77.20;;;;;;5000968;28;20033;-68
2023/03/18 09:01:02;;;;;;;7.38;3.55;;;15.00;77.20;;;;;;4997804;28;20078;-69
2023/03/18 09:03:27;;;;;;;5.35;3.13;;;15.00;77.10;;;;;;5021731;28;20416;-70
2023/03/18 09:05:54;;;;;;;3.42;2.90;;;15.10;76.90;;;;;;5032779;28;20079;-70
2023/03/18 09:08:20;;;;;;;3.70;2.72;;;15.10;76.70;;;;;;5019371;28;20061;-69
2023/03/18 09:10:49;;;;;;;5.47;3.10;;;15.20;76.40;;;;;;5026606;28;20076;-71
2023/03/18 09:13:15;;;;;;;5.18;3.05;;;15.40;76.30;;;;;;4998849;28;20123;-71
2023/03/18 09:15:41;;;;;;;7.85;4.10;;;15.50;75.60;;;;;;5004387;28;20495;-67
2023/03/18 09:18:07;;;;;;;5.18;3.00;;;15.70;74.80;;;;;;5013809;28;20064;-70
2023/03/18 09:20:33;;;;;;;3.42;2.53;;;15.80;74.60;;;;;;5006847;28;20104;-71
2023/03/18 09:23:01;;;;;;;3.35;2.30;;;16.00;74.20;;;;;;5018187;28;20465;-71
2023/03/18 09:25:26;;;;;;;2.55;2.20;;;16.00;73.80;;;;;;5024339;28;20017;-70
2023/03/18 09:27:52;;;;;;;4.15;3.42;;;16.10;73.40;;;;;;5026660;28;20033;-70
2023/03/18 09:30:19;;;;;;;4.07;3.10;;;16.10;73.10;;;;;;5019692;28;20109;-70
2023/03/18 09:32:45;;;;;;;4.43;2.50;;;16.10;72.50;;;;;;5033869;28;20096;-67
2023/03/18 09:35:11;;;;;;;6.97;2.42;;;16.10;72.60;;;;;;5025671;28;20485;-68
2023/03/18 09:37:37;;;;;;;4.22;2.92;;;16.10;72.40;;;;;;5024004;28;20064;-71
2023/03/18 09:40:07;;;;;;;4.00;2.22;;;16.10;72.40;;;;;;5031226;28;20028;-71
2023/03/18 09:42:51;;;;;;;5.25;2.35;;;16.20;72.40;;;;;;5031200;28;20578;-68
2023/03/18 09:45:34;;;;;;;5.18;2.80;;;16.40;72.00;;;;;;5027869;28;20018;-68
2023/03/18 09:47:59;;;;;;;3.17;2.45;;;16.50;71.30;;;;;;5017687;28;20022;-68
2023/03/18 09:50:37;;;;;;;4.38;2.00;;;16.70;71.20;;;;;;5033996;28;20523;-67
2023/03/18 09:53:18;;;;;;;5.45;2.58;;;17.00;71.00;;;;;;5030337;28;20037;-71
2023/03/18 09:55:45;;;;;;;5.55;2.55;;;17.20;70.30;;;;;;5032601;28;20476;-72
2023/03/18 09:58:53;;;;;;;3.42;2.35;;;17.30;69.60;;;;;;5029016;28;20503;-72
2023/03/18 10:01:21;;;;;;;3.83;2.85;;;17.40;69.60;;;;;;5027016;28;20026;-68
2023/03/18 10:04:01;;;;;;;3.22;2.10;;;17.50;69.10;;;;;;5042653;28;20083;-67
2023/03/18 10:06:27;;;;;;;3.78;2.53;;;17.60;68.80;;;;;;5026920;28;20037;-68
2023/03/18 10:09:29;;;;;;;4.18;2.30;;;17.70;67.90;;;;;;5036203;28;20051;-67
2023/03/18 10:12:06;;;;;;;3.97;1.95;;;17.80;67.90;;;;;;5025436;28;20026;-68
2023/03/18 10:14:44;;;;;;;4.80;2.80;;;17.80;67.40;;;;;;5025372;28;20037;-68
2023/03/18 10:17:30;;;;;;;4.85;2.50;;;17.90;67.50;;;;;;5031951;28;20025;-66
2023/03/18 10:20:01;;;;;;;2.95;2.13;;;18.00;67.20;;;;;;5028152;28;20024;-67
2023/03/18 10:23:05;;;;;;;4.20;1.85;;;18.00;66.90;;;;;;5034793;28;20018;-71
2023/03/18 10:25:34;;;;;;;2.70;2.03;;;17.90;66.90;;;;;;5027023;28;20041;-67
2023/03/18 10:28:11;;;;;;;2.40;2.20;;;17.90;67.20;;;;;;5034145;28;20374;-72
2023/03/18 10:30:43;;;;;;;3.20;1.73;;;18.00;67.20;;;;;;5018983;28;20020;-67
2023/03/18 10:33:27;;;;;;;4.43;2.08;;;18.10;66.70;;;;;;5015931;28;20050;-68
2023/03/18 10:36:34;;;;;;;4.68;2.40;;;18.00;66.40;;;;;;5024564;28;20028;-71
2023/03/18 10:39:02;;;;;;;6.68;2.75;;;18.00;66.60;;;;;;5044987;28;20099;-70
2023/03/18 10:41:37;;;;;;;3.88;1.90;;;17.90;66.10;;;;;;5041784;28;20557;-67
2023/03/18 10:44:25;;;;;;;3.92;1.70;;;17.90;66.50;;;;;;5020748;28;20523;-67
2023/03/18 10:47:02;;;;;;;4.25;2.88;;;17.90;66.70;;;;;;5031876;28;20465;-67
2023/03/18 10:49:37;;;;;;;2.72;2.05;;;18.00;66.30;;;;;;5020646;28;20030;-71
2023/03/18 10:52:26;;;;;;;2.42;2.08;;;18.00;66.50;;;;;;5025643;28;20037;-71
2023/03/18 10:54:52;;;;;;;2.42;1.88;;;18.00;66.30;;;;;;5026675;28;20040;-67
2023/03/18 10:57:20;;;;;;;2.63;1.98;;;18.30;66.30;;;;;;5024990;28;20037;-72
2023/03/18 10:59:50;;;;;;;3.28;2.10;;;18.60;65.90;;;;;;5031171;28;20026;-68
2023/03/18 11:02:24;;;;;;;4.35;2.20;;;18.90;64.90;;;;;;5029273;28;20025;-67
2023/03/18 11:04:58;;;;;;;2.55;1.58;;;19.00;63.80;;;;;;5017943;28;20076;-68
2023/03/18 11:07:26;;;;;;;2.85;1.60;;;19.10;63.60;;;;;;5020796;28;20477;-67
2023/03/18 11:09:52;;;;;;;3.92;2.35;;;19.30;63.20;;;;;;5039282;28;20024;-72
2023/03/18 11:12:21;;;;;;;2.92;1.85;;;19.60;62.80;;;;;;5036474;28;20033;-74
2023/03/18 11:14:49;;;;;;;3.05;1.45;;;20.00;62.00;;;;;;5010147;28;20022;-73
2023/03/18 11:17:37;;;;;;;2.10;1.55;;;20.10;60.40;;;;;;5023407;28;20340;-73
2023/03/18 11:20:07;;;;;;;3.33;1.92;;;20.20;60.30;;;;;;5023492;28;20037;-74
2023/03/18 11:22:35;;;;;;;1.48;1.15;;;20.20;59.90;;;;;;5026210;28;20013;-68
2023/03/18 11:25:01;;;;;;;1.42;1.17;;;20.00;60.00;;;;;;5024633;28;20021;-68
2023/03/18 11:27:33;;;;;;;1.45;0.90;;;20.00;60.10;;;;;;5011873;28;20404;-67
2023/03/18 11:30:04;;;;;;;0.93;0.88;;;20.10;60.00;;;;;;5029531;28;20301;-68
2023/03/18 11:32:32;;;;;;;3.17;1.20;;;20.40;57.90;;;;;;5008834;28;20124;-68
2023/03/18 11:35:01;;;;;;;1.40;1.00;;;20.40;56.10;;;;;;5026000;28;20026;-68
2023/03/18 11:37:31;;;;;;;1.42;0.82;;;20.20;56.80;;;;;;5029868;28;20442;-68
2023/03/18 11:40:12;;;;;;;3.25;0.80;;;20.20;57.50;;;;;;5025145;28;20018;-68
2023/03/18 11:42:42;;;;;;;1.23;0.80;;;20.50;57.30;;;;;;5021474;28;20273;-67
2023/03/18 11:45:24;;;;;;;3.90;1.00;;;20.70;56.70;;;;;;5004216;28;20128;-71
2023/03/18 11:47:51;;;;;;;1.23;1.13;;;21.00;56.30;;;;;;5027218;28;20449;-72
2023/03/18 11:50:29;;;;;;;1.30;0.90;;;21.40;55.10;;;;;;5009556;28;20029;-67
2023/03/18 11:53:39;;;;;;;0.63;0.60;;;21.60;53.70;;;;;;5027993;28;20045;-68
2023/03/18 11:56:19;;;;;;;0.90;0.70;;;21.70;53.00;;;;;;4979365;28;20064;-71
2023/03/18 11:58:51;;;;;;;2.13;0.70;;;21.60;53.20;;;;;;5024200;28;20038;-71
2023/03/18 12:01:39;;;;;;;1.02;0.88;;;21.60;53.60;;;;;;5027681;28;20146;-73
2023/03/18 12:04:36;;;;;;;0.73;0.70;;;21.90;53.60;;;;;;5024152;28;20116;-73
2023/03/18 12:07:07;;;;;;;1.25;0.77;;;21.80;52.20;;;;;;5017317;28;20056;-70
2023/03/18 12:10:11;;;;;;;1.25;0.80;;;21.60;52.60;;;;;;5020804;28;20041;-71
2023/03/18 12:12:40;;;;;;;2.38;0.98;;;21.40;53.10;;;;;;5024782;28;20086;-71
2023/03/18 12:15:25;;;;;;;1.05;0.82;;;21.20;53.70;;;;;;5018053;28;20112;-71
2023/03/18 12:18:28;;;;;;;1.38;0.70;;;21.10;54.00;;;;;;5008492;28;20076;-70
2023/03/18 12:20:59;;;;;;;1.30;0.85;;;20.90;54.30;;;;;;5019954;28;20112;-67
2023/03/18 12:24:03;;;;;;;1.00;0.90;;;20.90;55.00;;;;;;5024267;28;20079;-71
2023/03/18 12:27:00;;;;;;;2.17;1.15;;;20.80;55.30;;;;;;5014418;28;20059;-71
2023/03/18 12:30:08;;;;;;;1.38;1.00;;;20.70;55.20;;;;;;4993433;28;20037;-71
2023/03/18 12:32:48;;;;;;;3.90;1.77;;;20.40;55.30;;;;;;5007242;28;20041;-71
2023/03/18 12:35:42;;;;;;;1.05;0.80;;;20.10;56.10;;;;;;5006977;28;20037;-70
2023/03/18 12:38:08;;;;;;;1.48;1.02;;;19.80;56.90;;;;;;5026080;28;20037;-67
2023/03/18 12:40:51;;;;;;;1.67;1.40;;;19.70;57.50;;;;;;5022617;28;20393;-67
2023/03/18 12:43:42;;;;;;;2.22;1.00;;;19.70;57.80;;;;;;5026093;28;20481;-66
2023/03/18 12:46:20;;;;;;;1.05;0.80;;;19.60;58.00;;;;;;5021176;28;20084;-67
2023/03/18 12:49:02;;;;;;;1.10;0.90;;;19.60;58.40;;;;;;5005452;28;20037;-67
2023/03/18 12:51:33;;;;;;;;;;;19.50;58.60;;;;;;5025882;28;21480;-67
2023/03/18 12:54:09;;;;;;;1.45;0.95;;;19.50;58.70;;;;;;5026202;28;19916;-67
2023/03/18 12:56:39;;;;;;;2.85;0.70;;;19.50;58.30;;;;;;5021042;28;20076;-66
2023/03/18 12:59:26;;;;;;;1.30;1.00;;;19.40;58.40;;;;;;5024021;28;20042;-66
2023/03/18 13:02:04;;;;;;;2.00;1.13;;;19.40;58.60;;;;;;5026397;28;20014;-67
2023/03/18 13:04:34;;;;;;;0.98;0.77;;;19.30;58.50;;;;;;5026066;28;20029;-70